Terminal Aerodrome Forecast
Issued by NWS Sterling, VA

Current Version | Previous Version | Graphics & Text | Print | Product List | Glossary On
Versions: 1 2 3 4 5 6 7 8 9 10 11 12 13 14 15 16 17
968
FTUS41 KLWX 241720
TAFMRB
TAF
KMRB 241720Z 2418/2518 14007KT P6SM BKN025 OVC050
     FM250000 12009KT P6SM VCSH BKN015 OVC050
     FM250300 11010KT 2SM RA BR BKN008 OVC015
     FM250900 VRB04KT 5SM -RA BKN008 OVC015
     FM251600 VRB04KT P6SM BKN015 BKN050=

USA.gov is the U.S. government's official web portal to all federal, state and local government web resources and services.